SPEO2: Bird Creek, Sperry, OK

Data processed at Wed May 22 2019 23:30


All information presented herein is the property of the government of the United States of America and may be revised or deleted at any time without prior notice.
Dissemination of this information without the expressed written consent of the Public Affairs Office, Tulsa District U.S. Army Corps of Engineers is strictly prohibited.
These data are gathered electronically and, as presented, have not undergone any form of quality control. These data are not guaranteed to be valid or correct.
Go to home page.
Go to station list.
Go to home page.

Upstream stations:

Downstream station:
Previous Day
Next Day
Current Day
    
SHEF ID:       SPEO2     Bird Creek near Sperry, OK
STATION TYPE:  
Regulating: Stage =    21.00, Flow =    11249

               PRECIP     STAGE  STAGE(2)  RIV-FLOW  WTR-TEMP   DIS-OXY        PH   CONDUCT  BAT-LOAD
                   in        ft        ft       cfs         F      mg/l        su   umho/cm      volt
              Ccp-Rev   Ccp-Rev   Ccp-Rev   Ccp-Rev   Ccp-Rev   Ccp-Rev   Ccp-Rev   Ccp-Rev   Ccp-Rev
(US/Central)
05/22 00:00      0.00     31.34     30.88     57161     61.97      6.62      7.28        94     12.41
05/22 01:00      0.00     31.46     31.00     60201     61.90      6.66      7.32        96     12.41
05/22 02:00      0.00     31.49     31.02     60983     61.84      6.69      7.34        98     12.41
05/22 03:00      0.00     31.50     31.12     61247     61.81      6.73      7.35       100     12.41
05/22 04:00      0.00     31.55     31.09     62578     61.75      6.76      7.35       102     12.41
05/22 05:00      0.00     31.54     31.02     62309     61.68      6.80      7.37       104     12.41
05/22 06:00      0.00     31.53     31.06     62042     61.61      6.83      7.37       105     12.33
05/22 07:00      0.00     31.48     31.16     60721     61.52      6.88      7.38       107     12.33
05/22 08:00      0.00     31.43     31.13     59427     61.47      6.91      7.38       108     12.33
05/22 09:00      0.00     31.41     31.15     58916     61.45      6.94      7.39       109     12.41
05/22 10:00      0.00     31.36     31.05     57657     61.45      6.96      7.41       111     12.49
05/22 11:00      0.00     31.30     30.82     56179     61.52      6.99      7.41       112     12.41
05/22 12:00      0.00     31.23     30.85     54499     61.63      7.00      7.43       112     12.65
05/22 13:00      0.00     31.12     30.93     51953     61.77      7.01      7.44       113     12.73
05/22 14:00      0.00     31.05     30.76     50390     62.02      7.01      7.44       113     13.84
05/22 15:00      0.00     30.94     30.64     48030     62.31      7.01      7.44       112     12.65
05/22 16:00      0.00     30.82     30.32     45580     62.62      6.99      7.43       112     12.57
05/22 17:00      0.00     30.70     30.32     43246     62.89      6.96      7.42       111     12.73
05/22 18:00      0.22     30.56     30.14     40663     63.21      6.94      7.43       109     12.65
05/22 19:00      0.08     30.45     29.88     38838     63.48      6.91      7.41       108     12.41
05/22 20:00      0.03     30.30     29.97     36631     63.75      6.86      7.41       107     12.41
05/22 21:00      0.01     30.15     29.73     34539     63.95      6.79      7.38       107     12.41
05/22 22:00      0.00     29.92     29.59     31542     64.15      6.72      7.37       106     12.41
05/22 23:00      0.01     29.78     29.48     30167     64.35      6.64      7.35       107     12.41